createdAt,value
2022-08-02T00:01:20.301Z,29.26
2022-08-02T00:03:47.481Z,29.17
2022-08-02T00:06:14.656Z,29.10
2022-08-02T00:08:41.824Z,29.05
2022-08-02T00:11:09.005Z,28.99
2022-08-02T00:13:39.486Z,28.99
2022-08-02T00:16:09.377Z,28.99
2022-08-02T00:18:36.556Z,28.99
2022-08-02T00:21:03.868Z,28.95
2022-08-02T00:23:31.121Z,28.94
2022-08-02T00:25:58.930Z,28.88
2022-08-02T00:28:27.733Z,28.89
2022-08-02T00:30:57.579Z,28.85
2022-08-02T00:34:26.390Z,28.86
2022-08-02T00:36:12.104Z,28.76
2022-08-02T00:38:39.280Z,28.71
2022-08-02T00:41:11.600Z,28.54
2022-08-02T00:43:39.072Z,28.52
2022-08-02T00:46:06.338Z,28.33
2022-08-02T00:48:33.613Z,28.30
2022-08-02T00:51:01.974Z,28.14
2022-08-02T00:53:29.229Z,28.12
2022-08-02T00:56:14.846Z,27.94
2022-08-02T00:58:42.106Z,27.91
2022-08-02T01:01:09.632Z,27.94
2022-08-02T01:03:36.886Z,27.88
2022-08-02T01:06:11.641Z,27.79
2022-08-02T01:08:40.073Z,27.80
2022-08-02T01:11:07.474Z,27.80
2022-08-02T01:13:34.747Z,27.83
2022-08-02T01:16:04.185Z,27.87
2022-08-02T01:18:35.847Z,27.85
2022-08-02T01:21:14.228Z,27.76
2022-08-02T01:23:44.167Z,27.76
2022-08-02T01:26:17.259Z,27.76
2022-08-02T01:28:50.736Z,27.74
2022-08-02T01:31:26.186Z,27.74
2022-08-02T01:34:03.099Z,27.75
2022-08-02T01:36:32.799Z,27.82
2022-08-02T01:39:01.864Z,27.79
2022-08-02T01:41:29.706Z,27.71
2022-08-02T01:43:59.473Z,27.75
2022-08-02T01:46:27.683Z,27.67
2022-08-02T01:48:56.443Z,27.68
2022-08-02T01:51:44.937Z,27.73
2022-08-02T01:54:14.459Z,27.76
2022-08-02T01:56:43.151Z,27.62
2022-08-02T01:59:12.989Z,27.67
2022-08-02T02:01:41.782Z,27.65
2022-08-02T02:04:09.901Z,27.56
2022-08-02T02:06:37.736Z,27.63
2022-08-02T02:09:05.364Z,27.74
2022-08-02T02:12:06.569Z,27.74
2022-08-02T02:14:21.831Z,27.73
2022-08-02T02:16:49.368Z,27.69
2022-08-02T02:19:20.906Z,27.67
2022-08-02T02:21:48.678Z,27.62
2022-08-02T02:24:15.985Z,27.58
2022-08-02T02:26:52.126Z,27.49
2022-08-02T02:29:25.423Z,27.35
2022-08-02T02:31:53.514Z,27.24
2022-08-02T02:34:26.534Z,27.24
2022-08-02T02:36:54.736Z,27.17
2022-08-02T02:39:22.897Z,27.06
2022-08-02T02:41:51.499Z,26.91
2022-08-02T02:44:20.064Z,26.80
2022-08-02T02:46:49.669Z,26.81
2022-08-02T02:49:18.117Z,26.73
2022-08-02T02:51:46.045Z,26.59
2022-08-02T02:54:30.089Z,26.59
2022-08-02T02:57:02.685Z,26.43
2022-08-02T02:59:30.317Z,26.37
2022-08-02T03:01:58.813Z,26.33
2022-08-02T03:04:36.047Z,26.17
2022-08-02T03:07:15.708Z,26.08
2022-08-02T03:09:43.093Z,25.94
2022-08-02T03:12:11.109Z,25.89
2022-08-02T03:14:44.897Z,25.89
2022-08-02T03:17:16.753Z,25.71
2022-08-02T03:19:44.781Z,25.72
2022-08-02T03:22:12.278Z,25.68
2022-08-02T03:24:39.707Z,25.68
2022-08-02T03:27:07.182Z,25.66
2022-08-02T03:29:34.871Z,25.63
2022-08-02T03:32:02.328Z,25.65
2022-08-02T03:34:29.704Z,25.56
2022-08-02T03:36:58.214Z,25.64
2022-08-02T03:39:25.958Z,25.69
2022-08-02T03:41:54.866Z,25.71
2022-08-02T03:44:22.933Z,25.63
2022-08-02T03:46:51.169Z,25.63
2022-08-02T03:49:19.036Z,25.61
2022-08-02T03:51:47.233Z,25.52
2022-08-02T03:54:15.048Z,25.66
2022-08-02T03:56:42.410Z,25.64
2022-08-02T03:59:13.764Z,25.71
2022-08-02T04:01:41.334Z,25.81
2022-08-02T04:04:09.040Z,25.79
2022-08-02T04:06:39.868Z,25.79
2022-08-02T04:09:07.233Z,25.68
2022-08-02T04:11:34.592Z,25.50
2022-08-02T04:14:36.362Z,25.60
2022-08-02T04:17:08.413Z,25.65
2022-08-02T04:19:40.723Z,25.48
2022-08-02T04:22:13.301Z,25.47
2022-08-02T04:25:01.358Z,25.60
2022-08-02T04:28:15.461Z,25.50
2022-08-02T04:30:17.189Z,25.48
2022-08-02T04:32:44.833Z,25.53
2022-08-02T04:35:20.371Z,25.50
2022-08-02T04:38:05.671Z,25.55
2022-08-02T04:40:36.107Z,25.58
2022-08-02T04:43:03.376Z,25.51
2022-08-02T04:45:30.630Z,25.46
2022-08-02T04:48:06.126Z,25.25
2022-08-02T04:50:34.563Z,24.99
2022-08-02T04:53:01.972Z,24.84
2022-08-02T04:55:29.980Z,24.81
2022-08-02T04:57:58.580Z,24.95
2022-08-02T05:00:27.157Z,24.98
2022-08-02T05:02:55.802Z,24.71
2022-08-02T05:05:23.075Z,24.63
2022-08-02T05:07:50.302Z,24.47
2022-08-02T05:10:17.515Z,24.50
2022-08-02T05:12:44.746Z,24.45
2022-08-02T05:15:13.168Z,24.57
2022-08-02T05:17:47.404Z,24.70
2022-08-02T05:20:18.565Z,24.74
2022-08-02T05:22:45.792Z,24.78
2022-08-02T05:25:13.038Z,24.67
2022-08-02T05:27:40.578Z,24.49
2022-08-02T05:30:08.294Z,24.26
2022-08-02T05:32:35.865Z,24.39
2022-08-02T05:35:03.351Z,24.36
2022-08-02T05:37:32.127Z,24.39
2022-08-02T05:40:01.162Z,24.40
2022-08-02T05:42:31.943Z,24.17
2022-08-02T05:44:59.587Z,24.04
2022-08-02T05:47:26.882Z,24.05
2022-08-02T05:49:54.077Z,24.05
2022-08-02T05:52:24.248Z,23.88
2022-08-02T05:54:57.368Z,23.48
2022-08-02T05:57:41.881Z,23.50
2022-08-02T06:00:13.375Z,23.45
2022-08-02T06:02:43.345Z,23.35
2022-08-02T06:05:12.453Z,23.22
2022-08-02T06:07:42.007Z,22.87
2022-08-02T06:10:10.021Z,22.66
2022-08-02T06:12:41.450Z,22.84
2022-08-02T06:15:08.817Z,22.94
2022-08-02T06:17:41.942Z,22.91
2022-08-02T06:20:13.389Z,22.87
2022-08-02T06:22:44.947Z,22.98
2022-08-02T06:25:49.862Z,22.89
2022-08-02T06:28:01.251Z,22.93
2022-08-02T06:30:28.900Z,22.87
2022-08-02T06:32:56.314Z,23.05
2022-08-02T06:35:25.780Z,23.01
2022-08-02T06:37:58.883Z,23.20
2022-08-02T06:40:29.374Z,23.00
2022-08-02T06:42:56.576Z,23.13
2022-08-02T06:45:23.823Z,22.96
2022-08-02T06:47:50.981Z,22.89
2022-08-02T06:50:18.197Z,22.77
2022-08-02T06:52:45.696Z,22.70
2022-08-02T06:55:12.972Z,22.97
2022-08-02T06:57:40.105Z,23.02
2022-08-02T07:00:09.599Z,23.07
2022-08-02T07:02:37.302Z,23.13
2022-08-02T07:05:04.827Z,23.06
2022-08-02T07:07:32.273Z,22.66
2022-08-02T07:10:01.676Z,22.82
2022-08-02T07:12:31.755Z,22.82
2022-08-02T07:15:03.532Z,22.53
2022-08-02T07:17:31.260Z,22.74
2022-08-02T07:19:58.822Z,22.72
2022-08-02T07:22:27.533Z,22.62
2022-08-02T07:24:56.400Z,22.65
2022-08-02T07:27:23.843Z,22.65
2022-08-02T07:29:51.138Z,22.67
2022-08-02T07:32:19.346Z,22.48
2022-08-02T07:34:52.668Z,22.35
2022-08-02T07:37:35.657Z,22.14
2022-08-02T07:40:14.147Z,22.20
2022-08-02T07:42:43.362Z,22.42
2022-08-02T07:45:11.312Z,22.15
2022-08-02T07:47:39.118Z,21.97
2022-08-02T07:50:06.668Z,22.27
2022-08-02T07:52:33.929Z,22.33
2022-08-02T07:55:01.269Z,22.21
2022-08-02T07:57:28.529Z,22.16
2022-08-02T07:59:55.679Z,22.40
2022-08-02T08:02:24.779Z,22.60
2022-08-02T08:04:52.562Z,22.76
2022-08-02T08:07:20.343Z,22.70
2022-08-02T08:09:50.769Z,22.80
2022-08-02T08:12:21.296Z,23.07
2022-08-02T08:14:48.472Z,23.33
2022-08-02T08:17:15.688Z,23.43
2022-08-02T08:19:51.919Z,23.57
2022-08-02T08:22:22.864Z,23.87
2022-08-02T08:24:50.519Z,23.88
2022-08-02T08:27:18.531Z,23.90
2022-08-02T08:29:46.222Z,23.91
2022-08-02T08:32:17.454Z,23.91
2022-08-02T08:34:45.971Z,24.08
2022-08-02T08:37:18.156Z,24.02
2022-08-02T08:39:58.021Z,24.01
2022-08-02T08:42:30.915Z,24.26
2022-08-02T08:44:58.809Z,24.39
2022-08-02T08:47:34.386Z,24.53
2022-08-02T08:50:03.188Z,24.75
2022-08-02T08:52:32.556Z,24.97
2022-08-02T08:54:59.865Z,25.26
2022-08-02T08:57:29.631Z,25.38
2022-08-02T08:59:56.987Z,25.37
2022-08-02T09:02:28.095Z,25.45
2022-08-02T09:04:55.922Z,25.58
2022-08-02T09:07:23.717Z,26.27
2022-08-02T09:09:50.903Z,26.47
2022-08-02T09:12:19.623Z,26.19
2022-08-02T09:14:50.134Z,26.12
2022-08-02T09:17:18.129Z,25.99
2022-08-02T09:19:46.290Z,25.78
2022-08-02T09:22:15.496Z,25.82
2022-08-02T09:24:43.770Z,26.26
2022-08-02T09:27:12.037Z,27.15
2022-08-02T09:30:06.004Z,27.58
2022-08-02T09:32:29.679Z,27.78
2022-08-02T09:34:56.845Z,27.53
2022-08-02T09:37:27.885Z,27.26
2022-08-02T09:39:57.218Z,27.25
2022-08-02T09:42:30.750Z,27.48
2022-08-02T09:45:00.462Z,27.54
2022-08-02T09:47:28.798Z,27.48
2022-08-02T09:49:58.564Z,27.46
2022-08-02T09:52:37.459Z,27.30
2022-08-02T09:55:11.439Z,27.35
2022-08-02T09:57:38.957Z,27.53
2022-08-02T10:00:07.809Z,27.37
2022-08-02T10:03:02.238Z,27.51
2022-08-02T10:05:34.675Z,27.77
2022-08-02T10:08:09.359Z,27.91
2022-08-02T10:10:36.668Z,28.11
2022-08-02T10:13:04.959Z,27.97
2022-08-02T10:15:32.243Z,27.86
2022-08-02T10:17:59.471Z,27.99
2022-08-02T10:20:26.703Z,28.00
2022-08-02T10:22:54.888Z,28.04
2022-08-02T10:25:22.182Z,28.14
2022-08-02T10:28:04.856Z,28.17
2022-08-02T10:30:34.621Z,27.97
2022-08-02T10:33:03.276Z,27.92
2022-08-02T10:35:32.846Z,28.21
2022-08-02T10:38:07.788Z,28.13
2022-08-02T10:40:44.435Z,27.90
2022-08-02T10:43:11.813Z,27.81
2022-08-02T10:45:39.547Z,28.03
2022-08-02T10:48:11.768Z,28.21
2022-08-02T10:50:59.241Z,28.29
2022-08-02T10:53:32.087Z,28.44
2022-08-02T10:56:04.664Z,28.51
2022-08-02T10:58:32.920Z,28.59
2022-08-02T11:01:04.544Z,28.61
2022-08-02T11:03:32.893Z,28.54
2022-08-02T11:06:25.620Z,28.42
2022-08-02T11:09:12.400Z,28.42
2022-08-02T11:11:59.488Z,28.55
2022-08-02T11:14:26.826Z,28.70
2022-08-02T11:16:57.068Z,28.88
2022-08-02T11:19:25.257Z,29.03
2022-08-02T11:22:05.880Z,28.99
2022-08-02T11:24:33.965Z,29.05
2022-08-02T11:27:05.407Z,29.10
2022-08-02T11:29:38.372Z,29.14
2022-08-02T11:32:15.390Z,29.14
2022-08-02T11:34:43.428Z,29.16
2022-08-02T11:37:11.280Z,29.25
2022-08-02T11:39:38.457Z,29.28
2022-08-02T11:42:05.831Z,29.38
2022-08-02T11:44:39.992Z,29.47
2022-08-02T11:47:08.366Z,29.55
2022-08-02T11:49:37.058Z,29.70
2022-08-02T11:52:05.581Z,29.70
2022-08-02T11:54:35.308Z,29.68
2022-08-02T11:57:18.982Z,29.71
2022-08-02T11:59:51.547Z,29.72
2022-08-02T12:02:22.555Z,29.79
2022-08-02T12:04:58.882Z,29.87
2022-08-02T12:07:30.394Z,29.84
2022-08-02T12:10:07.304Z,29.87
2022-08-02T12:12:47.032Z,29.94
2022-08-02T12:15:17.345Z,29.87
2022-08-02T12:18:05.372Z,29.79
2022-08-02T12:20:37.069Z,29.86
2022-08-02T12:23:04.497Z,29.89
2022-08-02T12:25:34.525Z,29.95
2022-08-02T12:28:18.154Z,30.05
2022-08-02T12:31:03.484Z,30.10
2022-08-02T12:33:46.765Z,30.15
2022-08-02T12:36:18.128Z,30.23
2022-08-02T12:38:55.635Z,30.25
2022-08-02T12:41:31.114Z,30.24
2022-08-02T12:44:00.133Z,30.20
2022-08-02T12:46:27.564Z,29.92
2022-08-02T12:49:16.475Z,30.00
2022-08-02T12:51:50.896Z,30.07
2022-08-02T12:54:31.213Z,30.18
2022-08-02T12:57:19.498Z,30.21
2022-08-02T12:59:53.714Z,30.25
2022-08-02T13:02:21.612Z,30.30
2022-08-02T13:04:50.635Z,30.26
2022-08-02T13:07:18.919Z,30.03
2022-08-02T13:09:48.312Z,30.08
2022-08-02T13:12:16.174Z,30.17
2022-08-02T13:14:43.741Z,30.23
2022-08-02T13:17:11.648Z,30.28
2022-08-02T13:19:39.263Z,30.32
2022-08-02T13:22:08.413Z,30.24
2022-08-02T13:24:41.158Z,30.27
2022-08-02T13:27:23.835Z,30.34
2022-08-02T13:29:51.309Z,30.40
2022-08-02T13:32:18.724Z,30.43
2022-08-02T13:34:46.208Z,30.41
2022-08-02T13:37:13.463Z,30.39
2022-08-02T13:39:40.778Z,30.37
2022-08-02T13:42:16.686Z,30.38
2022-08-02T13:44:44.426Z,30.35
2022-08-02T13:47:11.644Z,30.34
2022-08-02T13:49:51.499Z,30.38
2022-08-02T13:52:19.318Z,30.42
2022-08-02T13:54:46.513Z,30.52
2022-08-02T13:57:13.659Z,30.52
2022-08-02T13:59:57.971Z,30.52
2022-08-02T14:02:28.077Z,30.47
2022-08-02T14:04:55.703Z,30.40
2022-08-02T14:07:22.947Z,30.41
2022-08-02T14:09:50.107Z,30.40
2022-08-02T14:12:17.597Z,30.42
2022-08-02T14:14:45.033Z,30.46
2022-08-02T14:17:13.612Z,30.50
2022-08-02T14:19:40.801Z,30.52
2022-08-02T14:22:21.268Z,30.51
2022-08-02T14:24:48.653Z,30.44
2022-08-02T14:27:15.967Z,30.26
2022-08-02T14:29:43.251Z,30.17
2022-08-02T14:32:10.824Z,30.18
2022-08-02T14:34:38.333Z,30.09
2022-08-02T14:37:05.575Z,30.13
2022-08-02T14:39:43.588Z,30.13
2022-08-02T14:42:19.893Z,30.23
2022-08-02T14:44:47.049Z,30.32
2022-08-02T14:47:14.464Z,30.33
2022-08-02T14:49:44.995Z,30.33
2022-08-02T14:52:14.907Z,30.33
2022-08-02T14:54:43.207Z,30.36
2022-08-02T14:57:10.661Z,30.35
2022-08-02T14:59:42.539Z,30.39
2022-08-02T15:02:10.829Z,30.41
2022-08-02T15:04:42.822Z,30.45
2022-08-02T15:07:11.467Z,30.47
2022-08-02T15:09:39.463Z,30.39
2022-08-02T15:12:08.181Z,30.41
2022-08-02T15:14:35.364Z,30.35
2022-08-02T15:17:02.821Z,30.31
2022-08-02T15:19:57.324Z,30.33
2022-08-02T15:22:19.367Z,30.33
2022-08-02T15:24:47.400Z,30.35
2022-08-02T15:27:15.173Z,30.36
2022-08-02T15:29:43.700Z,30.33
2022-08-02T15:32:11.472Z,30.33
2022-08-02T15:34:39.204Z,30.36
2022-08-02T15:37:06.429Z,30.42
2022-08-02T15:39:33.610Z,30.41
2022-08-02T15:42:00.807Z,30.44
2022-08-02T15:44:28.386Z,30.44
2022-08-02T15:46:55.817Z,30.44
2022-08-02T15:49:23.862Z,30.40
2022-08-02T15:51:52.152Z,30.37
2022-08-02T15:54:19.969Z,30.26
2022-08-02T15:56:47.268Z,30.32
2022-08-02T15:59:15.313Z,30.34
2022-08-02T16:01:47.181Z,30.34
2022-08-02T16:04:15.614Z,30.35
2022-08-02T16:06:43.333Z,30.33
2022-08-02T16:09:10.517Z,30.32
2022-08-02T16:11:37.972Z,30.26
2022-08-02T16:14:05.529Z,30.26
2022-08-02T16:16:34.349Z,30.30
2022-08-02T16:19:46.693Z,30.47
2022-08-02T16:21:50.602Z,30.51
2022-08-02T16:24:17.867Z,30.40
2022-08-02T16:26:45.121Z,30.31
2022-08-02T16:29:12.363Z,30.31
2022-08-02T16:31:42.575Z,30.41
2022-08-02T16:34:10.303Z,30.40
2022-08-02T16:36:37.882Z,30.33
2022-08-02T16:39:05.384Z,30.22
2022-08-02T16:41:45.438Z,30.18
2022-08-02T16:44:27.659Z,30.17
2022-08-02T16:47:00.549Z,30.17
2022-08-02T16:50:05.180Z,30.16
2022-08-02T16:52:19.065Z,30.19
2022-08-02T16:54:49.446Z,30.25
2022-08-02T16:57:20.032Z,30.19
2022-08-02T16:59:58.088Z,30.18
2022-08-02T17:02:26.363Z,30.18
2022-08-02T17:04:53.624Z,30.15
2022-08-02T17:08:15.238Z,30.14
2022-08-02T17:10:09.546Z,30.06
2022-08-02T17:12:37.691Z,30.05
2022-08-02T17:15:57.042Z,30.13
2022-08-02T17:18:26.467Z,30.20
2022-08-02T17:20:54.388Z,30.11
2022-08-02T17:23:21.560Z,30.07
2022-08-02T17:25:52.731Z,30.07
2022-08-02T17:28:20.075Z,30.05
2022-08-02T17:30:47.294Z,30.02
2022-08-02T17:33:15.842Z,30.01
2022-08-02T17:35:52.904Z,29.98
2022-08-02T17:38:25.891Z,29.93
2022-08-02T17:40:54.968Z,29.94
2022-08-02T17:43:22.172Z,29.97
2022-08-02T17:46:00.316Z,29.99
2022-08-02T17:48:50.090Z,29.95
2022-08-02T17:52:15.453Z,29.90
2022-08-02T17:54:09.466Z,29.87
2022-08-02T17:56:37.205Z,29.83
2022-08-02T18:02:11.658Z,29.78
2022-08-02T18:04:39.141Z,29.72
2022-08-02T18:09:54.257Z,29.72
2022-08-02T18:12:21.661Z,29.66
2022-08-02T18:14:49.493Z,29.62
2022-08-02T18:17:16.886Z,29.55
2022-08-02T18:19:53.881Z,29.54
2022-08-02T18:22:22.709Z,29.51
2022-08-02T18:24:53.776Z,29.54
2022-08-02T18:27:21.050Z,29.51
2022-08-02T18:29:48.486Z,29.48
2022-08-02T18:33:54.330Z,29.45
2022-08-02T18:35:15.034Z,29.44
2022-08-02T18:37:43.812Z,29.45
2022-08-02T18:40:15.021Z,29.41
2022-08-02T18:42:42.234Z,29.39
2022-08-02T18:45:19.721Z,29.35
2022-08-02T18:47:50.774Z,29.32
2022-08-02T18:50:35.769Z,29.28
2022-08-02T18:53:03.209Z,29.28
2022-08-02T18:55:59.772Z,29.26
2022-08-02T18:58:20.396Z,29.20
2022-08-02T19:00:51.785Z,29.18
2022-08-02T19:03:19.513Z,29.19
2022-08-02T19:05:52.189Z,29.26
2022-08-02T19:08:25.417Z,29.23
2022-08-02T19:10:56.219Z,29.27
2022-08-02T19:13:24.067Z,29.28
2022-08-02T19:15:52.384Z,29.24
2022-08-02T19:18:19.635Z,29.20
2022-08-02T19:20:57.207Z,29.15
2022-08-02T19:23:29.771Z,29.08
2022-08-02T19:25:57.045Z,29.07
2022-08-02T19:28:26.127Z,29.05
2022-08-02T19:30:54.641Z,29.11
2022-08-02T19:33:25.250Z,29.10
2022-08-02T19:36:09.813Z,29.10
2022-08-02T19:38:43.838Z,29.01
2022-08-02T19:41:13.228Z,28.96
2022-08-02T19:44:25.146Z,28.92
2022-08-02T19:46:28.150Z,28.88
2022-08-02T19:48:55.369Z,28.85
2022-08-02T19:51:50.022Z,28.78
2022-08-02T19:54:11.059Z,28.73
2022-08-02T19:56:40.513Z,28.72
2022-08-02T19:59:13.812Z,28.65
2022-08-02T20:01:46.337Z,28.68
2022-08-02T20:04:18.825Z,28.68
2022-08-02T20:06:51.494Z,28.72
2022-08-02T20:09:21.489Z,28.74
2022-08-02T20:11:54.400Z,28.81
2022-08-02T20:14:26.643Z,28.86
2022-08-02T20:16:54.793Z,28.86
2022-08-02T20:19:21.978Z,28.84
2022-08-02T20:21:54.315Z,28.88
2022-08-02T20:24:26.716Z,28.92
2022-08-02T20:26:54.761Z,28.72
2022-08-02T20:29:45.070Z,28.52
2022-08-02T20:32:09.452Z,28.38
2022-08-02T20:34:37.170Z,28.25
2022-08-02T20:38:01.137Z,28.18
2022-08-02T20:39:52.595Z,28.11
2022-08-02T20:42:23.180Z,28.07
2022-08-02T20:44:54.635Z,28.00
2022-08-02T20:47:28.028Z,28.00
2022-08-02T20:50:30.288Z,28.04
2022-08-02T20:53:00.010Z,28.01
2022-08-02T20:55:27.980Z,28.05
2022-08-02T20:58:00.659Z,28.09
2022-08-02T21:00:28.997Z,28.09
2022-08-02T21:02:56.177Z,28.06
2022-08-02T21:05:26.690Z,28.02
2022-08-02T21:08:13.968Z,28.04
2022-08-02T21:10:43.616Z,27.93
2022-08-02T21:13:18.573Z,27.81
2022-08-02T21:16:22.526Z,27.76
2022-08-02T21:18:55.779Z,27.59
2022-08-02T21:21:28.060Z,27.63
2022-08-02T21:23:55.307Z,27.53
2022-08-02T21:26:28.216Z,27.45
2022-08-02T21:28:58.400Z,27.39
2022-08-02T21:31:29.951Z,27.39
2022-08-02T21:33:59.451Z,27.32
2022-08-02T21:36:31.173Z,27.38
2022-08-02T21:39:00.035Z,27.41
2022-08-02T21:41:39.584Z,27.21
2022-08-02T21:44:17.951Z,27.08
2022-08-02T21:46:45.988Z,26.96
2022-08-02T21:49:17.003Z,26.84
2022-08-02T21:51:49.762Z,26.72
2022-08-02T21:54:20.234Z,26.53
2022-08-02T21:56:49.831Z,26.62
2022-08-02T21:59:17.486Z,26.57
2022-08-02T22:01:53.024Z,26.50
2022-08-02T22:04:21.563Z,26.40
2022-08-02T22:06:49.332Z,26.35
2022-08-02T22:09:43.452Z,26.36
2022-08-02T22:12:09.854Z,26.37
2022-08-02T22:14:39.659Z,26.24
2022-08-02T22:17:08.866Z,26.20
2022-08-02T22:19:54.051Z,26.14
2022-08-02T22:22:28.217Z,26.15
2022-08-02T22:24:56.552Z,26.12
2022-08-02T22:28:13.267Z,26.10
2022-08-02T22:30:11.867Z,26.06
2022-08-02T22:32:57.967Z,26.05
2022-08-02T22:35:25.249Z,26.01
2022-08-02T22:38:17.389Z,26.01
2022-08-02T22:40:40.265Z,25.97
2022-08-02T22:43:07.448Z,25.95
2022-08-02T22:45:39.563Z,26.04
2022-08-02T22:48:07.018Z,26.06
2022-08-02T22:50:34.568Z,26.00
2022-08-02T22:53:03.025Z,25.96
2022-08-02T22:55:49.782Z,25.89
2022-08-02T22:58:16.925Z,25.91
2022-08-02T22:58:43.325Z,29.74
2022-08-02T22:58:49.180Z,29.80
2022-08-02T23:00:46.820Z,25.95
2022-08-02T23:03:14.009Z,25.92
2022-08-02T23:05:41.504Z,25.88
2022-08-02T23:08:08.768Z,25.79
2022-08-02T23:10:35.948Z,25.68
2022-08-02T23:13:03.195Z,25.64
2022-08-02T23:15:50.343Z,25.54
2022-08-02T23:18:36.243Z,25.50
2022-08-02T23:21:03.594Z,25.48
2022-08-02T23:23:30.733Z,25.44
2022-08-02T23:25:57.894Z,25.38
2022-08-02T23:28:25.081Z,25.36
2022-08-02T23:30:52.291Z,25.35
2022-08-02T23:33:19.515Z,25.32
2022-08-02T23:35:46.691Z,25.29
2022-08-02T23:38:13.879Z,25.29
2022-08-02T23:40:41.381Z,25.32
2022-08-02T23:43:13.352Z,25.31
2022-08-02T23:45:43.095Z,25.26
2022-08-02T23:48:10.276Z,25.29
2022-08-02T23:50:37.482Z,25.22
2022-08-02T23:53:04.684Z,25.20
2022-08-02T23:55:31.890Z,25.22
2022-08-02T23:57:59.011Z,25.21
